TimeEDT,TemperatureF,Dew PointF,Humidity,Sea Level PressureIn,VisibilityMPH,Wind Direction,Wind SpeedMPH,Gust SpeedMPH,PrecipitationIn,Events,Conditions,WindDirDegrees,DateUTC
12:15 AM,51.3,23.2,33,30.09,10.0,NNW,11.5,-,N/A,,Clear,340,2013-04-06 04:15:00
12:35 AM,50.5,23.5,35,30.09,10.0,NNW,16.1,24.2,N/A,,Clear,340,2013-04-06 04:35:00
12:55 AM,49.8,23.0,35,30.11,10.0,North,13.8,20.7,N/A,,Clear,350,2013-04-06 04:55:00
1:15 AM,49.1,22.8,36,30.11,10.0,North,11.5,18.4,N/A,,Clear,350,2013-04-06 05:15:00
1:35 AM,48.4,22.1,36,30.13,10.0,NNW,10.4,16.1,N/A,,Clear,330,2013-04-06 05:35:00
1:55 AM,47.7,20.8,35,30.13,10.0,NNW,16.1,-,N/A,,Clear,330,2013-04-06 05:55:00
2:15 AM,46.8,20.7,36,30.14,10.0,NNW,15.0,-,N/A,,Clear,340,2013-04-06 06:15:00
2:35 AM,45.3,20.7,38,30.15,10.0,NNW,9.2,-,N/A,,Clear,340,2013-04-06 06:35:00
2:55 AM,44.6,20.5,38,30.15,10.0,NNW,13.8,-,N/A,,Clear,340,2013-04-06 06:55:00
3:15 AM,44.1,20.1,39,30.15,10.0,NNW,15.0,-,N/A,,Clear,340,2013-04-06 07:15:00
3:35 AM,44.1,19.4,37,30.16,10.0,NNW,13.8,20.7,N/A,,Clear,340,2013-04-06 07:35:00
3:55 AM,43.9,19.0,37,30.17,10.0,North,11.5,19.6,N/A,,Clear,350,2013-04-06 07:55:00
4:15 AM,42.4,19.6,40,30.19,10.0,North,8.1,17.3,N/A,,Clear,360,2013-04-06 08:15:00
4:35 AM,42.3,20.1,41,30.20,10.0,North,10.4,-,N/A,,Clear,350,2013-04-06 08:35:00
4:55 AM,41.9,21.4,44,30.20,10.0,North,10.4,-,N/A,,Clear,350,2013-04-06 08:55:00
5:15 AM,41.0,21.4,46,30.21,10.0,North,6.9,-,N/A,,Clear,10,2013-04-06 09:15:00
5:35 AM,40.6,22.1,48,30.22,7.0,North,9.2,-,N/A,,Clear,350,2013-04-06 09:35:00
5:55 AM,40.1,22.8,50,30.24,10.0,North,8.1,-,N/A,,Clear,350,2013-04-06 09:55:00
6:15 AM,39.2,22.8,52,30.25,10.0,North,8.1,-,N/A,,Clear,360,2013-04-06 10:15:00
6:35 AM,38.3,23.4,55,30.27,10.0,NNW,4.6,-,N/A,,Clear,340,2013-04-06 10:35:00
6:55 AM,37.6,23.0,56,30.28,10.0,NNW,3.5,-,N/A,,Clear,340,2013-04-06 10:55:00
7:15 AM,38.3,23.7,56,30.30,10.0,North,5.8,-,N/A,,Clear,350,2013-04-06 11:15:00
7:35 AM,39.2,24.1,55,30.31,10.0,North,4.6,-,N/A,,Clear,350,2013-04-06 11:35:00
8:15 AM,41.4,23.9,50,30.33,10.0,North,10.4,-,N/A,,Clear,360,2013-04-06 12:15:00
8:35 AM,42.3,24.3,49,30.34,10.0,NNE,6.9,-,N/A,,Clear,30,2013-04-06 12:35:00
8:55 AM,43.0,24.1,47,30.34,10.0,North,13.8,17.3,N/A,,Clear,10,2013-04-06 12:55:00
9:15 AM,44.1,23.9,45,30.35,7.0,North,9.2,-,N/A,,Clear,350,2013-04-06 13:15:00
9:35 AM,46.4,24.3,42,30.35,5.0,NNE,9.2,-,N/A,,Haze,30,2013-04-06 13:35:00
9:55 AM,46.4,22.6,39,30.36,5.0,NNE,6.9,16.1,N/A,,Haze,30,2013-04-06 13:55:00
10:15 AM,47.3,22.6,38,30.36,5.0,ENE,9.2,-,N/A,,Haze,60,2013-04-06 14:15:00
10:35 AM,47.3,22.8,38,30.36,5.0,NNW,4.6,-,N/A,,Haze,330,2013-04-06 14:35:00
10:55 AM,48.9,23.2,36,30.37,5.0,East,5.8,-,N/A,,Haze,90,2013-04-06 14:55:00
11:15 AM,48.7,23.2,37,30.37,3.0,East,5.8,-,N/A,,Haze,100,2013-04-06 15:15:00
11:35 AM,49.6,23.7,36,30.38,10.0,Calm,Calm,-,N/A,,Clear,0,2013-04-06 15:35:00
11:55 AM,49.8,24.1,37,30.38,7.0,Calm,Calm,-,N/A,,Clear,0,2013-04-06 15:55:00
12:15 PM,50.7,23.2,34,30.37,5.0,NNE,8.1,-,N/A,,Haze,30,2013-04-06 16:15:00
12:35 PM,51.3,23.9,34,30.37,7.0,SE,5.8,-,N/A,,Clear,140,2013-04-06 16:35:00
12:55 PM,51.6,21.9,31,30.37,4.0,Calm,Calm,-,N/A,,Haze,0,2013-04-06 16:55:00
1:15 PM,52.5,23.2,32,30.35,7.0,ESE,3.5,-,N/A,,Clear,110,2013-04-06 17:15:00
1:35 PM,53.8,18.7,25,30.35,4.0,Calm,Calm,-,N/A,,Haze,0,2013-04-06 17:35:00
1:55 PM,54.1,21.2,28,30.35,4.0,Calm,Calm,-,N/A,,Haze,0,2013-04-06 17:55:00
2:15 PM,54.3,22.5,29,30.34,7.0,NNE,3.5,-,N/A,,Clear,20,2013-04-06 18:15:00
2:35 PM,54.1,20.8,27,30.33,7.0,Calm,Calm,-,N/A,,Clear,0,2013-04-06 18:35:00
2:55 PM,55.6,23.4,29,30.33,4.0,SE,4.6,-,N/A,,Haze,140,2013-04-06 18:55:00
3:15 PM,55.6,22.6,28,30.31,4.0,East,5.8,-,N/A,,Haze,90,2013-04-06 19:15:00
3:35 PM,55.8,18.9,24,30.31,4.0,ENE,4.6,-,N/A,,Haze,70,2013-04-06 19:35:00
3:55 PM,56.5,19.9,24,30.30,7.0,East,6.9,-,N/A,,Clear,100,2013-04-06 19:55:00
4:15 PM,56.5,16.9,21,30.30,7.0,Calm,Calm,-,N/A,,Clear,0,2013-04-06 20:15:00
4:35 PM,56.5,19.6,24,30.29,10.0,Calm,Calm,-,N/A,,Clear,0,2013-04-06 20:35:00
4:55 PM,57.6,24.4,28,30.29,7.0,SE,5.8,-,N/A,,Clear,130,2013-04-06 20:55:00
5:15 PM,57.4,24.4,28,30.29,4.0,ESE,8.1,-,N/A,,Haze,120,2013-04-06 21:15:00
5:35 PM,57.4,26.1,30,30.29,7.0,SE,4.6,-,N/A,,Clear,140,2013-04-06 21:35:00
5:55 PM,56.3,26.6,32,30.29,10.0,ESE,5.8,-,N/A,,Clear,120,2013-04-06 21:55:00
6:15 PM,55.8,26.4,32,30.29,3.0,East,10.4,-,N/A,,Haze,100,2013-04-06 22:15:00
6:35 PM,54.5,26.4,34,30.30,3.0,East,5.8,-,N/A,,Haze,90,2013-04-06 22:35:00
6:55 PM,53.4,24.8,33,30.30,3.0,East,8.1,-,N/A,,Haze,100,2013-04-06 22:55:00
7:15 PM,52.3,22.6,31,30.30,4.0,East,11.5,-,N/A,,Haze,90,2013-04-06 23:15:00
7:35 PM,50.9,23.9,35,30.30,4.0,ESE,5.8,-,N/A,,Haze,120,2013-04-06 23:35:00
7:55 PM,50.4,22.8,34,30.30,7.0,ESE,6.9,-,N/A,,Clear,110,2013-04-06 23:55:00
8:15 PM,49.6,22.6,35,30.31,7.0,ESE,8.1,-,N/A,,Clear,110,2013-04-07 00:15:00
8:35 PM,48.9,24.8,39,30.31,7.0,ESE,5.8,-,N/A,,Clear,120,2013-04-07 00:35:00
8:55 PM,48.2,24.6,40,30.31,10.0,SE,3.5,-,N/A,,Clear,130,2013-04-07 00:55:00
9:15 PM,46.9,24.8,42,30.33,10.0,SE,3.5,-,N/A,,Clear,130,2013-04-07 01:15:00
9:35 PM,46.2,24.1,42,30.33,10.0,SE,3.5,-,N/A,,Clear,130,2013-04-07 01:35:00
9:55 PM,46.4,27.3,47,30.33,10.0,SE,6.9,-,N/A,,Clear,140,2013-04-07 01:55:00
10:15 PM,45.7,28.4,51,30.33,10.0,SE,6.9,-,N/A,,Clear,140,2013-04-07 02:15:00
10:35 PM,45.0,28.6,53,30.33,10.0,SE,3.5,-,N/A,,Clear,140,2013-04-07 02:35:00
10:55 PM,45.0,29.1,54,30.33,10.0,SSE,5.8,-,N/A,,Clear,150,2013-04-07 02:55:00
11:15 PM,45.0,30.7,57,30.33,10.0,SSE,5.8,-,N/A,,Clear,150,2013-04-07 03:15:00
11:35 PM,43.7,32.0,63,30.33,10.0,SE,4.6,-,N/A,,Clear,140,2013-04-07 03:35:00
11:55 PM,43.7,32.0,63,30.33,10.0,SSE,5.8,-,N/A,,Clear,150,2013-04-07 03:55:00